Time;durP1;ratioP1;P1;durP2;ratioP2;P2;SDS_P1;SDS_P2;PMS_P1;PMS_P2;Temp;Humidity;BMP_temperature;BMP_pressure;BME280_temperature;BME280_humidity;BME280_pressure;Samples;Min_cycle;Max_cycle;Signal;HPM_P1;HPM_P2
2022/07/10 00:02:03;;;;;;;10.07;5.13;;;12.00;99.90;;;;;;4407751;28;658407;-62
2022/07/10 00:04:50;;;;;;;8.80;5.03;;;12.10;99.90;;;;;;4411163;28;658803;-64
2022/07/10 00:07:37;;;;;;;10.57;5.43;;;12.20;99.90;;;;;;4435189;28;657531;-62
2022/07/10 00:10:24;;;;;;;8.63;5.17;;;12.20;99.90;;;;;;4429593;28;658719;-62
2022/07/10 00:13:11;;;;;;;9.00;4.90;;;12.10;99.90;;;;;;4411525;28;657544;-62
2022/07/10 00:15:58;;;;;;;10.27;5.30;;;12.00;99.90;;;;;;4430673;28;658799;-62
2022/07/10 00:18:47;;;;;;;10.07;4.67;;;11.80;99.90;;;;;;4410194;28;658784;-63
2022/07/10 00:21:34;;;;;;;9.33;5.63;;;11.80;99.90;;;;;;4429708;28;659030;-62
2022/07/10 00:24:21;;;;;;;9.63;5.20;;;11.80;99.90;;;;;;4412214;28;657704;-62
2022/07/10 00:27:08;;;;;;;7.70;5.28;;;11.80;99.90;;;;;;4430630;28;658356;-62
2022/07/10 00:29:56;;;;;;;9.53;5.33;;;11.90;99.90;;;;;;4411956;28;657997;-62
2022/07/10 00:32:43;;;;;;;11.10;5.77;;;11.90;99.90;;;;;;4430650;28;658536;-62
2022/07/10 00:35:31;;;;;;;7.63;5.23;;;11.90;99.90;;;;;;4422179;28;659065;-64
2022/07/10 00:38:19;;;;;;;8.27;5.20;;;11.90;99.90;;;;;;4430692;28;658186;-62
2022/07/10 00:41:06;;;;;;;10.33;5.40;;;11.80;99.90;;;;;;4411561;28;657788;-63
2022/07/10 00:43:54;;;;;;;10.63;5.63;;;11.80;99.90;;;;;;4431282;28;660631;-62
2022/07/10 00:46:41;;;;;;;11.17;6.00;;;11.70;99.90;;;;;;4384553;28;658889;-62
2022/07/10 00:49:28;;;;;;;8.83;5.33;;;11.70;99.90;;;;;;4396386;28;659722;-62
2022/07/10 00:52:17;;;;;;;13.87;6.10;;;11.80;99.90;;;;;;4378855;28;657633;-63
2022/07/10 00:55:05;;;;;;;13.17;6.20;;;11.80;99.90;;;;;;4396348;28;658639;-62
2022/07/10 00:57:52;;;;;;;12.27;6.03;;;11.70;99.90;;;;;;4377878;28;660580;-62
2022/07/10 01:00:39;;;;;;;12.77;6.53;;;11.70;99.90;;;;;;4396173;28;659004;-62
2022/07/10 01:03:26;;;;;;;11.30;6.33;;;11.80;99.90;;;;;;4373616;28;659023;-62
2022/07/10 01:06:14;;;;;;;10.47;6.37;;;11.80;99.90;;;;;;4395983;28;660007;-62
2022/07/10 01:09:02;;;;;;;11.20;5.70;;;11.80;99.90;;;;;;4377339;28;659014;-63
2022/07/10 01:11:50;;;;;;;10.30;7.20;;;11.70;99.90;;;;;;4395404;28;658849;-64
2022/07/10 01:14:37;;;;;;;11.83;6.53;;;11.80;99.90;;;;;;4400349;28;659513;-62
2022/07/10 01:17:24;;;;;;;13.20;7.33;;;11.70;99.90;;;;;;4395969;28;658592;-62
2022/07/10 01:20:12;;;;;;;10.87;6.60;;;11.70;99.90;;;;;;4376336;28;660225;-62
2022/07/10 01:23:00;;;;;;;11.37;6.60;;;11.70;99.90;;;;;;4399530;28;658963;-62
2022/07/10 01:25:48;;;;;;;11.07;6.70;;;11.70;99.90;;;;;;4375960;28;658872;-63
2022/07/10 01:28:35;;;;;;;10.23;6.60;;;11.70;99.90;;;;;;4390894;28;658416;-64
2022/07/10 01:31:25;;;;;;;11.20;6.50;;;11.70;99.90;;;;;;4402674;28;658584;-62
2022/07/10 01:34:12;;;;;;;12.20;7.03;;;11.60;99.90;;;;;;4392475;28;659092;-62
2022/07/10 01:36:59;;;;;;;17.13;7.33;;;11.60;99.90;;;;;;4415166;28;658851;-62
2022/07/10 01:39:47;;;;;;;9.05;6.45;;;11.50;99.90;;;;;;4396487;28;658913;-62
2022/07/10 01:42:35;;;;;;;17.13;8.80;;;11.40;99.90;;;;;;4412910;28;657599;-64
2022/07/10 01:45:22;;;;;;;13.70;8.38;;;11.50;99.90;;;;;;4423079;28;658927;-62
2022/07/10 01:48:09;;;;;;;12.20;6.73;;;11.60;99.90;;;;;;4432542;28;658600;-62
2022/07/10 01:50:56;;;;;;;18.87;8.53;;;11.60;99.90;;;;;;4413115;28;658647;-62
2022/07/10 01:53:43;;;;;;;24.73;10.33;;;11.70;99.90;;;;;;4432031;28;659409;-62
2022/07/10 01:56:32;;;;;;;20.80;11.80;;;11.90;99.90;;;;;;4411834;28;659880;-62
2022/07/10 01:59:19;;;;;;;17.98;10.20;;;12.00;99.90;;;;;;4430681;28;660229;-62
2022/07/10 02:02:06;;;;;;;21.97;10.93;;;12.10;99.90;;;;;;4410274;28;659936;-62
2022/07/10 02:04:52;;;;;;;16.00;10.13;;;12.20;99.90;;;;;;4430903;28;659774;-62
2022/07/10 02:07:39;;;;;;;20.53;10.33;;;12.30;99.90;;;;;;4430348;28;660165;-62
2022/07/10 02:10:26;;;;;;;21.87;11.17;;;12.20;99.90;;;;;;4411938;28;659546;-62
2022/07/10 02:13:17;;;;;;;18.47;11.67;;;12.30;99.90;;;;;;4430683;28;660754;-62
2022/07/10 02:16:05;;;;;;;22.40;13.20;;;12.30;99.90;;;;;;4407354;28;659798;-62
2022/07/10 02:18:52;;;;;;;20.30;11.10;;;12.40;99.90;;;;;;4411893;28;660304;-63
2022/07/10 02:21:39;;;;;;;20.23;11.93;;;12.50;99.90;;;;;;4430300;28;660398;-62
2022/07/10 02:24:26;;;;;;;23.30;12.37;;;12.50;99.90;;;;;;4409698;28;659950;-62
2022/07/10 02:27:13;;;;;;;22.67;11.10;;;12.60;99.90;;;;;;4433801;28;659886;-62
2022/07/10 02:30:02;;;;;;;22.40;12.63;;;12.60;99.90;;;;;;4411032;28;660221;-63
2022/07/10 02:32:49;;;;;;;21.07;12.33;;;12.60;99.90;;;;;;4427108;28;660377;-63
2022/07/10 02:35:36;;;;;;;22.57;12.33;;;12.60;99.90;;;;;;4393751;28;659528;-63
2022/07/10 02:38:23;;;;;;;21.50;12.37;;;12.60;99.90;;;;;;4416892;28;659902;-62
2022/07/10 02:41:10;;;;;;;19.00;12.70;;;12.70;99.90;;;;;;4394587;28;659973;-64
2022/07/10 02:43:57;;;;;;;22.47;13.77;;;12.50;99.90;;;;;;4417079;28;659968;-62
2022/07/10 02:46:46;;;;;;;25.27;13.47;;;12.40;99.90;;;;;;4399023;28;660210;-63
2022/07/10 02:49:33;;;;;;;20.63;12.43;;;12.40;99.90;;;;;;4373454;28;661030;-63
2022/07/10 02:52:20;;;;;;;24.33;13.50;;;12.40;99.90;;;;;;4378711;28;659663;-64
2022/07/10 02:55:08;;;;;;;30.55;15.65;;;12.40;99.90;;;;;;4400222;28;659310;-63
2022/07/10 02:57:55;;;;;;;26.83;15.03;;;12.50;99.90;;;;;;4377230;28;659952;-63
2022/07/10 03:00:42;;;;;;;28.70;13.90;;;12.50;99.90;;;;;;4396256;28;660369;-63
2022/07/10 03:03:31;;;;;;;30.20;14.27;;;12.50;99.90;;;;;;4396003;28;659740;-62
2022/07/10 03:06:18;;;;;;;27.50;15.13;;;12.60;99.90;;;;;;4373116;28;660310;-63
2022/07/10 03:09:05;;;;;;;26.70;14.30;;;12.60;99.90;;;;;;4379583;28;659682;-64
2022/07/10 03:11:52;;;;;;;24.52;14.82;;;12.60;99.90;;;;;;4399897;28;659007;-63
2022/07/10 03:14:39;;;;;;;25.80;14.80;;;12.70;99.90;;;;;;4395952;28;659595;-62
2022/07/10 03:17:27;;;;;;;25.47;14.20;;;12.90;99.90;;;;;;4376700;28;660571;-63
2022/07/10 03:20:15;;;;;;;25.63;13.90;;;12.90;99.90;;;;;;4395385;28;660453;-63
2022/07/10 03:23:02;;;;;;;25.73;13.13;;;12.90;99.90;;;;;;4376122;28;659733;-63
2022/07/10 03:25:49;;;;;;;24.10;13.30;;;13.00;99.90;;;;;;4395180;28;659847;-63
2022/07/10 03:28:36;;;;;;;22.87;13.13;;;13.00;99.90;;;;;;4376878;28;660199;-63
2022/07/10 03:31:23;;;;;;;27.20;13.30;;;13.00;99.90;;;;;;4395320;28;660936;-62
2022/07/10 03:34:11;;;;;;;22.03;13.10;;;12.90;99.90;;;;;;4388427;28;660158;-63
2022/07/10 03:37:00;;;;;;;23.83;13.57;;;12.90;99.90;;;;;;4411700;28;660234;-63
2022/07/10 03:39:47;;;;;;;21.77;12.17;;;12.90;99.90;;;;;;4388148;28;661043;-63
2022/07/10 03:42:34;;;;;;;21.23;12.53;;;12.90;99.90;;;;;;4411635;28;659431;-63
2022/07/10 03:45:21;;;;;;;24.87;12.73;;;12.80;99.90;;;;;;4396459;28;659838;-63
2022/07/10 03:48:08;;;;;;;22.70;13.10;;;12.90;99.90;;;;;;4428992;28;660477;-63
2022/07/10 03:50:55;;;;;;;22.73;13.40;;;12.90;99.90;;;;;;4410138;28;659908;-63
2022/07/10 03:53:44;;;;;;;21.47;12.60;;;12.90;99.90;;;;;;4428898;28;660765;-63
2022/07/10 03:59:35;;;;;;;23.53;14.43;;;12.90;99.90;;;;;;4386864;28;659451;-64
2022/07/10 04:02:22;;;;;;;26.00;13.93;;;12.90;99.90;;;;;;4433182;28;660088;-63
2022/07/10 04:05:10;;;;;;;25.27;13.43;;;12.90;99.90;;;;;;4428507;28;659707;-62
2022/07/10 04:07:57;;;;;;;21.97;12.67;;;13.10;99.90;;;;;;4405927;28;660546;-63
2022/07/10 04:10:45;;;;;;;25.88;12.38;;;13.20;99.90;;;;;;4428572;28;659703;-63
2022/07/10 04:13:33;;;;;;;25.77;12.77;;;13.30;99.90;;;;;;4405516;28;660243;-63
2022/07/10 04:16:20;;;;;;;19.40;12.73;;;13.40;99.90;;;;;;4420815;28;659763;-65
2022/07/10 04:19:07;;;;;;;24.60;12.77;;;13.50;99.90;;;;;;4432744;28;659047;-63
2022/07/10 04:21:54;;;;;;;22.07;14.23;;;13.60;99.90;;;;;;4428444;28;659902;-62
2022/07/10 04:24:41;;;;;;;26.73;14.60;;;13.70;99.90;;;;;;4409433;28;659495;-63
2022/07/10 04:27:30;;;;;;;23.07;13.40;;;13.50;99.90;;;;;;4432580;28;660115;-62
2022/07/10 04:30:18;;;;;;;23.17;13.30;;;13.60;99.90;;;;;;4409428;28;660738;-62
2022/07/10 04:33:05;;;;;;;20.87;12.60;;;13.90;99.90;;;;;;4420811;28;659565;-64
2022/07/10 04:35:52;;;;;;;20.93;11.63;;;14.00;99.90;;;;;;4428401;28;660381;-62
2022/07/10 04:38:39;;;;;;;20.97;11.23;;;13.90;99.90;;;;;;4428292;28;659790;-63
2022/07/10 04:41:26;;;;;;;16.47;10.63;;;14.00;99.90;;;;;;4409396;28;659940;-63
2022/07/10 04:44:15;;;;;;;19.17;10.73;;;14.00;99.90;;;;;;4428205;28;659707;-62
2022/07/10 04:47:03;;;;;;;18.07;9.97;;;14.10;99.90;;;;;;4374095;28;660780;-63
2022/07/10 04:49:50;;;;;;;15.83;9.43;;;14.10;99.90;;;;;;4388384;28;658504;-64
2022/07/10 04:52:37;;;;;;;17.65;9.23;;;13.90;99.90;;;;;;4400452;28;658987;-63
2022/07/10 04:55:24;;;;;;;14.30;8.00;;;13.80;99.90;;;;;;4396560;28;659051;-62
2022/07/10 04:58:11;;;;;;;13.60;8.33;;;13.70;99.90;;;;;;4374143;28;659193;-62
2022/07/10 05:01:00;;;;;;;14.70;7.57;;;13.80;99.90;;;;;;4402266;28;659137;-65
2022/07/10 05:03:47;;;;;;;10.87;6.47;;;13.70;99.90;;;;;;4379351;28;659813;-65
2022/07/10 05:06:34;;;;;;;11.13;7.47;;;13.70;99.90;;;;;;4402362;28;658732;-64
2022/07/10 05:09:21;;;;;;;12.53;7.27;;;13.80;99.90;;;;;;4383206;28;658482;-64
2022/07/10 05:12:09;;;;;;;12.83;8.23;;;13.70;99.90;;;;;;4402439;28;659686;-64
2022/07/10 05:14:56;;;;;;;10.87;6.63;;;13.60;99.90;;;;;;4382729;28;658778;-65
2022/07/10 05:17:45;;;;;;;11.73;7.77;;;13.50;99.90;;;;;;4401069;28;659227;-64
2022/07/10 05:20:33;;;;;;;9.47;6.10;;;13.60;99.90;;;;;;4378849;28;660180;-65
2022/07/10 05:23:20;;;;;;;8.20;5.37;;;13.70;99.90;;;;;;4384225;28;658244;-67
2022/07/10 05:26:07;;;;;;;11.20;6.50;;;13.60;99.90;;;;;;4406853;28;657572;-65
2022/07/10 05:28:54;;;;;;;9.63;5.80;;;13.50;99.90;;;;;;4401686;28;659134;-64
2022/07/10 05:31:41;;;;;;;9.90;6.63;;;13.50;99.90;;;;;;4379689;28;659013;-64
2022/07/10 05:34:30;;;;;;;10.43;7.17;;;13.50;99.90;;;;;;4402017;28;658148;-65
2022/07/10 05:37:17;;;;;;;12.83;7.90;;;13.40;99.90;;;;;;4378749;28;659983;-65
2022/07/10 05:40:06;;;;;;;13.40;7.30;;;13.60;99.90;;;;;;4401809;28;658714;-65
2022/07/10 05:42:53;;;;;;;10.97;7.17;;;13.80;99.90;;;;;;4378557;28;659918;-65
2022/07/10 05:45:40;;;;;;;9.48;6.80;;;13.90;99.90;;;;;;4394507;28;658979;-66
2022/07/10 05:48:27;;;;;;;11.20;6.23;;;14.40;99.90;;;;;;4435763;28;658660;-65
2022/07/10 05:51:16;;;;;;;12.30;5.97;;;14.40;99.90;;;;;;4435151;28;658838;-64
2022/07/10 05:54:03;;;;;;;8.07;5.47;;;14.30;99.90;;;;;;4411745;28;658744;-65
2022/07/10 05:56:51;;;;;;;7.90;5.30;;;14.40;99.90;;;;;;4416884;28;658457;-66
2022/07/10 05:59:38;;;;;;;9.57;5.07;;;14.30;99.90;;;;;;4439869;28;658800;-65
2022/07/10 06:02:26;;;;;;;4.90;3.90;;;14.40;99.90;;;;;;4426221;28;657697;-66
2022/07/10 06:05:13;;;;;;;8.43;4.97;;;14.80;99.90;;;;;;4436061;28;658420;-65
2022/07/10 06:08:02;;;;;;;7.77;5.00;;;14.80;99.90;;;;;;4416820;28;657603;-66
2022/07/10 06:10:49;;;;;;;4.70;2.87;;;15.10;99.90;;;;;;4432935;28;658201;-65
2022/07/10 06:13:36;;;;;;;6.25;4.13;;;14.70;99.90;;;;;;4413881;28;657389;-65
2022/07/10 06:16:23;;;;;;;5.47;4.10;;;14.70;99.90;;;;;;4433319;28;658776;-65
2022/07/10 06:19:10;;;;;;;6.20;3.97;;;14.50;99.90;;;;;;4414137;28;657666;-65
2022/07/10 06:25:05;;;;;;;3.80;2.97;;;15.20;99.90;;;;;;4414331;28;657469;-65
2022/07/10 06:27:52;;;;;;;3.37;2.73;;;15.50;99.90;;;;;;4414304;28;657961;-65
2022/07/10 06:30:39;;;;;;;3.40;2.83;;;15.50;99.90;;;;;;4432667;28;657644;-65
2022/07/10 06:33:26;;;;;;;4.07;2.60;;;15.40;99.90;;;;;;4409880;28;657724;-64
2022/07/10 06:36:13;;;;;;;4.33;3.07;;;15.60;99.90;;;;;;4432713;28;657859;-65
2022/07/10 06:39:01;;;;;;;7.03;4.33;;;15.90;99.90;;;;;;4412481;28;658239;-65
2022/07/10 06:41:50;;;;;;;11.27;5.20;;;16.30;99.90;;;;;;4432239;28;657961;-64
2022/07/10 06:44:37;;;;;;;12.10;5.60;;;16.50;99.90;;;;;;4412633;28;660042;-65
2022/07/10 06:50:30;;;;;;;10.07;5.07;;;16.90;99.90;;;;;;4374743;28;657512;-65
2022/07/10 06:53:17;;;;;;;17.53;5.60;;;16.90;99.90;;;;;;4373616;28;659255;-65
2022/07/10 06:56:05;;;;;;;8.87;3.60;;;17.10;99.90;;;;;;4400248;28;657936;-65
2022/07/10 06:58:54;;;;;;;7.40;3.00;;;16.80;99.90;;;;;;4374741;28;658161;-64
2022/07/10 07:01:41;;;;;;;3.17;1.87;;;16.60;99.90;;;;;;4377414;28;658024;-64
2022/07/10 07:04:28;;;;;;;7.03;3.20;;;16.40;99.90;;;;;;4401145;28;658017;-65
2022/07/10 07:07:15;;;;;;;7.87;3.33;;;16.30;99.90;;;;;;4380717;28;657613;-65
2022/07/10 07:10:02;;;;;;;6.47;3.10;;;15.90;99.90;;;;;;4401283;28;657688;-64
2022/07/10 07:12:50;;;;;;;6.30;2.10;;;16.20;99.90;;;;;;4395903;28;657764;-66
2022/07/10 07:15:42;;;;;;;2.93;1.37;;;16.50;99.90;;;;;;4401473;28;657418;-64
2022/07/10 07:18:32;;;;;;;5.17;1.77;;;16.40;99.90;;;;;;4374176;28;657777;-65
2022/07/10 07:24:25;;;;;;;6.73;1.80;;;16.80;99.90;;;;;;4364090;28;658036;-65
2022/07/10 07:27:12;;;;;;;5.00;2.07;;;17.50;99.90;;;;;;4400585;28;657600;-65
2022/07/10 07:30:03;;;;;;;5.60;1.87;;;17.50;99.90;;;;;;4397056;28;657744;-65
2022/07/10 07:32:51;;;;;;;5.23;2.00;;;17.00;99.90;;;;;;4357179;28;657907;-66
2022/07/10 07:35:39;;;;;;;4.17;1.90;;;16.60;99.90;;;;;;4396773;28;657720;-64
2022/07/10 07:38:26;;;;;;;3.07;1.60;;;16.00;99.90;;;;;;4377742;28;657765;-65
2022/07/10 07:41:13;;;;;;;5.33;1.87;;;16.40;99.90;;;;;;4400915;28;658710;-65
2022/07/10 07:44:00;;;;;;;4.47;1.70;;;16.40;99.90;;;;;;4385943;28;657920;-66
2022/07/10 07:46:47;;;;;;;5.57;1.63;;;16.50;99.90;;;;;;4415117;28;658016;-64
2022/07/10 07:49:36;;;;;;;3.37;1.50;;;16.60;99.90;;;;;;4414113;28;658119;-64
2022/07/10 07:52:23;;;;;;;4.73;1.90;;;16.40;99.90;;;;;;4390584;28;658278;-64
2022/07/10 07:55:11;;;;;;;6.67;1.90;;;15.90;99.90;;;;;;4395026;28;657645;-66
2022/07/10 07:57:58;;;;;;;5.63;1.70;;;15.80;99.90;;;;;;4416650;28;658841;-64
2022/07/10 08:00:45;;;;;;;5.32;1.77;;;15.90;99.90;;;;;;4397695;28;657860;-65
2022/07/10 08:03:32;;;;;;;6.33;1.60;;;16.40;99.90;;;;;;4413961;28;658944;-64
2022/07/10 08:06:21;;;;;;;8.43;1.90;;;16.90;99.90;;;;;;4413386;28;658168;-65
2022/07/10 08:09:08;;;;;;;5.20;1.97;;;16.80;99.90;;;;;;4390759;28;658568;-64
2022/07/10 08:11:55;;;;;;;6.13;2.23;;;16.70;99.90;;;;;;4394728;28;657455;-65
2022/07/10 08:14:42;;;;;;;7.40;2.50;;;16.30;99.90;;;;;;4417680;28;658239;-64
2022/07/10 08:17:29;;;;;;;7.63;2.30;;;16.90;99.90;;;;;;4413666;28;658314;-64
2022/07/10 08:20:16;;;;;;;6.53;2.17;;;17.80;99.90;;;;;;4394878;28;658150;-65
2022/07/10 08:23:05;;;;;;;7.50;1.70;;;17.60;99.90;;;;;;4413384;28;657859;-64
2022/07/10 08:25:52;;;;;;;5.27;2.10;;;17.10;99.90;;;;;;4390508;28;658328;-64
2022/07/10 08:28:39;;;;;;;4.27;1.40;;;16.90;99.90;;;;;;4413311;28;657887;-64
2022/07/10 08:31:27;;;;;;;7.43;2.00;;;16.40;99.90;;;;;;4394488;28;658701;-64
2022/07/10 08:34:14;;;;;;;3.40;1.07;;;16.50;99.90;;;;;;4412381;28;657329;-64
2022/07/10 08:37:01;;;;;;;8.03;1.40;;;16.70;99.90;;;;;;4394578;28;657431;-64
2022/07/10 08:39:50;;;;;;;2.23;1.10;;;16.20;99.90;;;;;;4413205;28;657553;-64
2022/07/10 08:42:37;;;;;;;2.40;1.07;;;16.20;99.90;;;;;;4390348;28;657933;-64
2022/07/10 08:45:24;;;;;;;8.20;1.40;;;15.90;99.90;;;;;;4420715;28;657335;-64
2022/07/10 08:48:11;;;;;;;3.40;1.20;;;16.30;99.90;;;;;;4411435;28;657505;-64
2022/07/10 08:50:58;;;;;;;3.50;1.40;;;16.50;99.90;;;;;;4430535;28;657715;-64
2022/07/10 08:53:45;;;;;;;2.33;1.10;;;17.70;99.90;;;;;;4411430;28;657937;-65
2022/07/10 08:56:34;;;;;;;4.83;1.27;;;17.90;99.90;;;;;;4429768;28;658728;-64
2022/07/10 08:59:21;;;;;;;4.90;1.40;;;17.30;99.90;;;;;;4411794;28;657991;-65
2022/07/10 09:02:08;;;;;;;3.40;1.40;;;17.70;99.90;;;;;;4434532;28;658132;-64
2022/07/10 09:04:55;;;;;;;5.50;1.47;;;17.80;96.50;;;;;;4411602;28;657447;-66
2022/07/10 09:07:43;;;;;;;4.80;1.40;;;17.70;99.20;;;;;;4434548;28;657835;-64
2022/07/10 09:10:31;;;;;;;3.07;1.17;;;18.40;95.10;;;;;;4411687;28;657867;-64
2022/07/10 09:13:20;;;;;;;2.33;0.90;;;18.10;93.50;;;;;;4430325;28;657664;-65
2022/07/10 09:16:07;;;;;;;3.67;1.23;;;17.60;94.80;;;;;;4407236;28;658751;-64
2022/07/10 09:18:54;;;;;;;2.10;1.03;;;18.40;97.60;;;;;;4430393;28;657677;-64
2022/07/10 09:21:41;;;;;;;3.73;1.10;;;18.20;90.50;;;;;;4411517;28;657430;-65
2022/07/10 09:24:29;;;;;;;2.77;1.20;;;18.00;90.40;;;;;;4430237;28;657318;-64
2022/07/10 09:27:17;;;;;;;4.90;1.13;;;17.80;91.90;;;;;;4407605;28;658695;-64
2022/07/10 09:30:06;;;;;;;3.40;1.10;;;17.40;93.00;;;;;;4429959;28;657597;-64
2022/07/10 09:32:55;;;;;;;4.77;0.83;;;18.10;92.50;;;;;;4407485;28;658943;-64
2022/07/10 09:36:07;;;;;;;4.60;1.30;;;17.80;90.70;;;;;;4407361;28;658365;-64
2022/07/10 09:38:57;;;;;;;4.00;1.00;;;16.80;92.40;;;;;;4427338;28;657607;-65
2022/07/10 09:41:44;;;;;;;3.73;1.20;;;16.60;95.10;;;;;;4430157;28;657999;-64
2022/07/10 09:44:31;;;;;;;4.10;1.10;;;16.60;95.10;;;;;;4409590;28;658020;-64
2022/07/10 09:47:24;;;;;;;7.10;1.30;;;16.30;96.60;;;;;;4398513;28;658244;-64
2022/07/10 09:50:20;;;;;;;3.03;1.10;;;16.40;97.80;;;;;;4357142;28;658062;-64
2022/07/10 09:53:09;;;;;;;6.67;1.30;;;16.90;95.90;;;;;;4351492;28;657837;-64
2022/07/10 09:55:56;;;;;;;2.97;1.30;;;17.10;95.10;;;;;;4377002;28;658028;-64
2022/07/10 09:58:43;;;;;;;3.00;1.20;;;17.30;93.80;;;;;;4398749;28;657977;-64
2022/07/10 10:01:30;;;;;;;10.90;1.30;;;17.10;95.10;;;;;;4379725;28;657446;-64
2022/07/10 10:04:21;;;;;;;2.80;1.00;;;17.30;93.90;;;;;;4396834;28;660637;-64
2022/07/10 10:07:10;;;;;;;4.07;1.05;;;17.40;92.90;;;;;;4375436;28;657669;-64
2022/07/10 10:09:57;;;;;;;8.17;1.10;;;17.30;94.00;;;;;;4379674;28;658204;-64
2022/07/10 10:12:48;;;;;;;6.20;1.10;;;18.30;91.70;;;;;;4398308;28;657675;-65
2022/07/10 10:15:35;;;;;;;5.63;1.10;;;18.90;90.90;;;;;;4379662;28;657808;-66
2022/07/10 10:18:24;;;;;;;2.80;0.97;;;19.60;84.10;;;;;;4402403;28;658411;-64
2022/07/10 10:21:12;;;;;;;7.43;1.30;;;19.60;83.70;;;;;;4379040;28;657886;-65
2022/07/10 10:23:59;;;;;;;3.37;0.83;;;19.80;78.30;;;;;;4397958;28;657681;-64
2022/07/10 10:26:46;;;;;;;3.33;0.87;;;20.00;77.30;;;;;;4375457;28;657606;-64
2022/07/10 10:29:35;;;;;;;3.30;0.97;;;20.00;76.40;;;;;;4398159;28;658345;-65
2022/07/10 10:32:22;;;;;;;4.50;1.00;;;20.70;79.40;;;;;;4375287;28;659214;-65
2022/07/10 10:35:10;;;;;;;2.43;0.70;;;20.60;74.20;;;;;;4382148;28;657545;-65
2022/07/10 10:37:59;;;;;;;4.73;1.00;;;19.80;73.30;;;;;;4402888;28;658316;-64
2022/07/10 10:40:47;;;;;;;2.88;1.10;;;19.80;74.40;;;;;;4376614;28;657566;-65
2022/07/10 10:43:36;;;;;;;5.43;0.83;;;20.00;71.10;;;;;;4396222;28;657344;-66
2022/07/10 10:46:24;;;;;;;3.60;1.10;;;20.10;71.90;;;;;;4421533;28;657889;-64
2022/07/10 10:49:11;;;;;;;2.10;0.80;;;18.70;74.50;;;;;;4414892;28;657845;-63
2022/07/10 10:51:59;;;;;;;6.27;1.50;;;17.60;75.00;;;;;;4433329;28;657829;-63
2022/07/10 10:55:14;;;;;;;4.20;1.20;;;17.30;79.90;;;;;;4411701;28;657666;-64
2022/07/10 10:58:14;;;;;;;6.80;1.20;;;17.60;82.30;;;;;;4381132;28;658457;-64
2022/07/10 11:01:03;;;;;;;6.07;1.30;;;17.90;86.80;;;;;;4414360;28;657541;-64
2022/07/10 11:04:19;;;;;;;10.43;2.27;;;18.10;82.60;;;;;;4414374;28;657563;-64
2022/07/10 11:07:06;;;;;;;6.63;1.90;;;17.70;83.50;;;;;;4411945;28;658333;-64
2022/07/10 11:09:54;;;;;;;8.77;1.97;;;17.50;85.90;;;;;;4433178;28;658437;-64
2022/07/10 11:15:38;;;;;;;4.13;1.60;;;17.60;87.00;;;;;;4931193;27;131363;-63
2022/07/10 11:18:28;;;;;;;7.80;1.57;;;17.60;85.80;;;;;;4416061;28;650009;-63
2022/07/10 11:21:22;;;;;;;5.90;1.60;;;17.60;85.40;;;;;;4436160;28;650535;-63
2022/07/10 11:24:12;;;;;;;2.10;1.20;;;17.50;82.90;;;;;;4428384;28;650016;-63
2022/07/10 11:27:03;;;;;;;6.50;1.10;;;17.20;86.90;;;;;;4455216;28;650842;-63
2022/07/10 11:29:57;;;;;;;3.50;1.27;;;17.30;85.30;;;;;;4414703;28;650135;-64
2022/07/10 11:32:48;;;;;;;4.93;1.37;;;16.70;86.60;;;;;;4451698;28;651162;-64
2022/07/10 11:35:35;;;;;;;4.23;1.10;;;16.30;86.20;;;;;;4440761;28;651314;-64
2022/07/10 11:38:23;;;;;;;3.83;1.10;;;16.40;86.30;;;;;;4463577;28;651902;-62
2022/07/10 11:41:14;;;;;;;4.95;1.02;;;16.70;89.80;;;;;;4455639;28;651553;-67
2022/07/10 11:44:02;;;;;;;3.63;0.97;;;16.60;83.40;;;;;;4447223;28;652905;-65
2022/07/10 11:46:49;;;;;;;5.73;0.80;;;17.20;81.60;;;;;;4470248;28;653379;-64
2022/07/10 11:49:44;;;;;;;4.23;1.00;;;17.90;82.10;;;;;;4447279;28;653529;-62
2022/07/10 11:52:36;;;;;;;5.87;0.90;;;18.40;76.10;;;;;;4427250;28;652620;-63
2022/07/10 11:55:23;;;;;;;5.63;0.90;;;18.50;79.80;;;;;;4447108;28;652863;-65
2022/07/10 11:58:15;;;;;;;11.47;1.03;;;19.20;78.40;;;;;;4451091;28;652934;-65
2022/07/10 12:01:06;;;;;;;5.00;1.00;;;18.70;73.10;;;;;;4450114;28;654959;-65
2022/07/10 12:03:57;;;;;;;3.37;0.93;;;18.60;76.10;;;;;;4447164;28;653639;-65
2022/07/10 12:06:46;;;;;;;6.43;1.00;;;19.50;73.00;;;;;;4447039;28;652887;-64
2022/07/10 12:09:38;;;;;;;3.43;0.97;;;18.80;73.10;;;;;;4440771;28;653140;-64
2022/07/10 12:12:26;;;;;;;6.82;1.20;;;18.30;74.40;;;;;;4420388;28;652829;-65
2022/07/10 12:15:30;;;;;;;2.97;0.73;;;17.60;78.60;;;;;;4472700;28;653148;-64
2022/07/10 12:18:18;;;;;;;7.10;1.33;;;17.00;80.80;;;;;;4423999;28;653060;-64
2022/07/10 12:21:06;;;;;;;2.70;1.23;;;16.80;84.80;;;;;;4450408;28;652694;-65
2022/07/10 12:23:54;;;;;;;4.17;1.30;;;17.00;90.00;;;;;;4469606;28;653628;-65
2022/07/10 12:26:42;;;;;;;7.63;1.13;;;18.00;87.80;;;;;;4439292;28;652260;-65
2022/07/10 12:29:30;;;;;;;3.07;1.10;;;18.10;82.60;;;;;;4452249;28;652352;-66
2022/07/10 12:32:23;;;;;;;4.83;1.10;;;18.70;87.80;;;;;;4457233;28;653582;-64
2022/07/10 12:35:14;;;;;;;7.17;1.37;;;18.90;82.30;;;;;;4415716;28;653241;-65
2022/07/10 12:38:01;;;;;;;3.50;1.23;;;18.30;79.80;;;;;;4438488;28;652610;-64
2022/07/10 12:40:50;;;;;;;6.80;1.50;;;17.80;86.50;;;;;;4457429;28;653144;-64
2022/07/10 12:43:38;;;;;;;7.17;1.50;;;18.50;83.20;;;;;;4434618;28;653825;-65
2022/07/10 12:46:25;;;;;;;4.40;1.70;;;18.60;85.40;;;;;;4447607;28;652272;-66
2022/07/10 12:49:12;;;;;;;5.67;1.70;;;18.30;81.20;;;;;;4461738;28;652079;-64
2022/07/10 12:51:59;;;;;;;7.17;1.50;;;18.50;78.90;;;;;;4456819;28;652709;-64
2022/07/10 12:54:47;;;;;;;5.20;1.37;;;18.80;76.70;;;;;;4438310;28;652998;-65
2022/07/10 12:57:45;;;;;;;9.10;2.37;;;19.50;76.00;;;;;;4456960;28;652717;-65
2022/07/10 13:00:33;;;;;;;7.30;1.50;;;18.80;77.40;;;;;;4411452;28;654329;-65
2022/07/10 13:03:22;;;;;;;7.03;1.70;;;19.40;77.20;;;;;;4438472;28;652601;-66
2022/07/10 13:06:26;;;;;;;4.73;0.83;;;19.70;76.80;;;;;;4453547;28;652566;-65
2022/07/10 13:09:19;;;;;;;5.97;1.10;;;19.50;71.60;;;;;;4434171;28;652626;-65
2022/07/10 13:12:07;;;;;;;2.77;0.77;;;19.10;74.20;;;;;;4432501;28;653103;-65
2022/07/10 13:14:55;;;;;;;3.53;1.00;;;19.80;73.10;;;;;;4456244;28;652419;-65
2022/07/10 13:17:44;;;;;;;4.70;0.80;;;19.00;68.80;;;;;;4432945;28;654196;-65
2022/07/10 13:20:31;;;;;;;4.40;0.73;;;19.70;73.00;;;;;;4433861;28;652626;-64
2022/07/10 13:23:21;;;;;;;4.13;0.73;;;19.30;67.60;;;;;;4456646;28;653618;-65
2022/07/10 13:26:09;;;;;;;3.47;0.60;;;18.30;69.40;;;;;;4430935;28;652988;-64
2022/07/10 13:28:56;;;;;;;1.93;0.90;;;17.70;70.10;;;;;;4435599;28;652893;-64
2022/07/10 13:31:44;;;;;;;1.67;0.60;;;17.20;73.30;;;;;;4460334;28;653566;-64
2022/07/10 13:34:31;;;;;;;3.93;0.60;;;17.30;71.40;;;;;;4437728;28;652455;-65
2022/07/10 13:37:19;;;;;;;3.30;0.60;;;17.50;72.10;;;;;;4455217;28;652831;-64
2022/07/10 13:40:08;;;;;;;1.10;0.50;;;17.80;69.30;;;;;;4436247;28;652403;-64
2022/07/10 13:42:56;;;;;;;1.30;0.60;;;17.70;71.30;;;;;;4446019;28;652555;-66
2022/07/10 13:45:43;;;;;;;1.90;0.60;;;18.10;70.80;;;;;;4459922;28;653548;-64
2022/07/10 13:48:32;;;;;;;0.70;0.43;;;18.20;70.00;;;;;;4437192;28;652587;-64
2022/07/10 13:51:19;;;;;;;1.80;0.50;;;18.50;69.10;;;;;;4456242;28;652605;-65
2022/07/10 13:54:06;;;;;;;3.72;0.50;;;18.30;68.80;;;;;;4437318;28;652055;-63
2022/07/10 13:56:53;;;;;;;2.20;0.63;;;17.80;71.70;;;;;;4455711;28;653655;-65
2022/07/10 13:59:40;;;;;;;3.30;0.70;;;18.10;71.50;;;;;;4437047;28;652908;-66
2022/07/10 14:02:27;;;;;;;2.13;0.70;;;17.80;71.90;;;;;;4454567;28;654820;-64
2022/07/10 14:05:16;;;;;;;5.20;0.80;;;18.20;72.80;;;;;;4454783;28;653806;-64
2022/07/10 14:08:04;;;;;;;2.73;0.70;;;18.20;74.50;;;;;;4431119;28;654549;-64
2022/07/10 14:10:51;;;;;;;2.50;0.70;;;18.40;76.50;;;;;;4435829;28;653894;-64
2022/07/10 14:13:38;;;;;;;1.67;0.53;;;18.40;74.10;;;;;;4454306;28;654755;-62
2022/07/10 14:16:25;;;;;;;2.30;0.67;;;19.00;73.10;;;;;;4435893;28;654048;-63
2022/07/10 14:19:13;;;;;;;1.70;0.70;;;19.40;71.00;;;;;;4458296;28;653407;-63
2022/07/10 14:22:01;;;;;;;1.00;0.47;;;18.60;72.90;;;;;;4446162;28;653410;-63
2022/07/10 14:24:49;;;;;;;3.37;0.77;;;18.90;72.00;;;;;;4454315;28;654275;-63
2022/07/10 14:27:36;;;;;;;3.70;0.60;;;18.70;70.40;;;;;;4435703;28;653595;-62
2022/07/10 14:30:23;;;;;;;1.03;0.57;;;18.30;73.30;;;;;;4455594;28;655369;-62
2022/07/10 14:33:10;;;;;;;1.60;0.70;;;18.00;74.00;;;;;;4439040;28;653219;-63